createdAt,value
2023-02-26T00:04:36.347Z,100733.00
2023-02-26T00:14:36.452Z,100745.00
2023-02-26T00:24:36.410Z,100755.00
2023-02-26T00:34:36.474Z,100769.00
2023-02-26T00:44:38.307Z,100778.00
2023-02-26T00:54:38.479Z,100790.00
2023-02-26T01:04:38.549Z,100807.00
2023-02-26T01:14:38.487Z,100807.00
2023-02-26T01:24:38.482Z,100811.00
2023-02-26T01:34:38.557Z,100819.00
2023-02-26T01:44:38.774Z,100824.00
2023-02-26T01:54:38.596Z,100828.00
2023-02-26T02:04:38.590Z,100830.00
2023-02-26T02:14:38.593Z,100832.00
2023-02-26T02:24:38.534Z,100842.00
2023-02-26T02:34:39.079Z,100848.00
2023-02-26T02:44:39.633Z,100865.00
2023-02-26T02:54:39.748Z,100875.00
2023-02-26T03:04:39.555Z,100885.00
2023-02-26T03:14:39.946Z,100895.00
2023-02-26T03:24:40.856Z,100905.00
2023-02-26T03:34:40.806Z,100918.00
2023-02-26T03:44:44.090Z,100932.00
2023-02-26T03:55:03.326Z,100944.00
2023-02-26T04:05:05.072Z,100946.00
2023-02-26T04:15:06.546Z,100954.00
2023-02-26T04:25:06.918Z,100962.00
2023-02-26T04:35:07.088Z,100971.00
2023-02-26T04:45:08.966Z,100979.00
2023-02-26T04:55:09.667Z,100993.00
2023-02-26T05:05:09.877Z,101007.00
2023-02-26T05:15:09.852Z,101016.00
2023-02-26T05:25:09.997Z,101022.00
2023-02-26T05:35:10.140Z,101036.00
2023-02-26T05:45:10.975Z,101048.00
2023-02-26T05:55:10.869Z,101066.00
2023-02-26T06:05:10.904Z,101080.00
2023-02-26T06:15:10.913Z,101096.00
2023-02-26T06:25:10.837Z,101113.00
2023-02-26T06:35:10.794Z,101131.00
2023-02-26T06:45:10.951Z,101143.00
2023-02-26T06:55:10.920Z,101152.00
2023-02-26T07:05:10.960Z,101168.00
2023-02-26T07:15:10.930Z,101195.00
2023-02-26T07:25:10.815Z,101221.00
2023-02-26T07:35:10.975Z,101233.00
2023-02-26T07:45:10.918Z,101248.00
2023-02-26T07:55:10.879Z,101264.00
2023-02-26T08:05:10.860Z,101282.00
2023-02-26T08:15:12.724Z,101297.00
2023-02-26T08:25:12.932Z,101303.00
2023-02-26T08:35:12.914Z,101316.00
2023-02-26T08:45:12.967Z,101326.00
2023-02-26T08:55:12.940Z,101337.00
2023-02-26T09:05:13.358Z,101357.00
2023-02-26T09:15:14.374Z,101377.00
2023-02-26T09:25:14.870Z,101384.00
2023-02-26T09:35:15.120Z,101396.00
2023-02-26T09:45:15.050Z,101402.00
2023-02-26T09:55:15.504Z,101406.00
2023-02-26T10:05:16.317Z,101414.00
2023-02-26T10:15:16.318Z,101422.00
2023-02-26T10:25:16.166Z,101431.00
2023-02-26T10:35:16.120Z,101439.00
2023-02-26T10:45:16.135Z,101449.00
2023-02-26T10:55:16.145Z,101451.00
2023-02-26T11:05:16.119Z,101451.00
2023-02-26T11:15:16.139Z,101461.00
2023-02-26T11:25:16.269Z,101469.00
2023-02-26T11:35:16.123Z,101471.00
2023-02-26T11:45:16.268Z,101469.00
2023-02-26T11:55:16.184Z,101476.00
2023-02-26T12:05:16.142Z,101471.00
2023-02-26T12:15:16.369Z,101467.00
2023-02-26T12:25:16.194Z,101465.00
2023-02-26T12:35:16.312Z,101457.00
2023-02-26T12:45:16.595Z,101451.00
2023-02-26T12:55:17.235Z,101459.00
2023-02-26T13:05:17.816Z,101455.00
2023-02-26T13:15:18.356Z,101455.00
2023-02-26T13:25:18.399Z,101459.00
2023-02-26T13:35:19.222Z,101455.00
2023-02-26T13:45:19.464Z,101449.00
2023-02-26T13:55:19.402Z,101449.00
2023-02-26T14:05:19.301Z,101455.00
2023-02-26T14:15:19.383Z,101457.00
2023-02-26T14:25:19.331Z,101453.00
2023-02-26T14:35:20.056Z,101455.00
2023-02-26T14:45:20.394Z,101461.00
2023-02-26T14:55:20.426Z,101461.00
2023-02-26T15:05:22.024Z,101469.00
2023-02-26T15:15:22.461Z,101467.00
2023-02-26T15:25:22.473Z,101472.00
2023-02-26T15:35:22.472Z,101478.00
2023-02-26T15:45:22.608Z,101480.00
2023-02-26T15:55:22.491Z,101492.00
2023-02-26T16:05:22.429Z,101498.00
2023-02-26T16:15:22.530Z,101504.00
2023-02-26T16:25:24.981Z,101502.00
2023-02-26T16:35:24.569Z,101510.00
2023-02-26T16:45:24.486Z,101527.00
2023-02-26T16:55:24.627Z,101535.00
2023-02-26T17:05:24.796Z,101545.00
2023-02-26T17:15:24.549Z,101555.00
2023-02-26T17:25:25.072Z,101563.00
2023-02-26T17:35:25.546Z,101579.00
2023-02-26T17:45:25.530Z,101589.00
2023-02-26T17:55:25.660Z,101601.00
2023-02-26T18:05:27.169Z,101611.00
2023-02-26T18:15:27.674Z,101614.00
2023-02-26T18:25:27.653Z,101616.00
2023-02-26T18:35:28.017Z,101624.00
2023-02-26T18:45:27.638Z,101632.00
2023-02-26T18:55:27.738Z,101638.00
2023-02-26T19:05:27.668Z,101642.00
2023-02-26T19:15:27.641Z,101654.00
2023-02-26T19:25:29.565Z,101667.00
2023-02-26T19:35:30.256Z,101669.00
2023-02-26T19:45:31.308Z,101681.00
2023-02-26T19:55:31.727Z,101691.00
2023-02-26T20:05:31.703Z,101701.00
2023-02-26T20:15:31.712Z,101712.00
2023-02-26T20:25:31.860Z,101724.00
2023-02-26T20:35:31.732Z,101732.00
2023-02-26T20:45:31.837Z,101738.00
2023-02-26T20:55:31.799Z,101748.00
2023-02-26T21:05:32.284Z,101755.00
2023-02-26T21:15:32.777Z,101761.00
2023-02-26T21:25:32.873Z,101767.00
2023-02-26T21:35:33.048Z,101773.00
2023-02-26T21:45:34.906Z,101775.00
2023-02-26T21:55:34.902Z,101775.00
2023-02-26T22:05:34.919Z,101775.00
2023-02-26T22:15:34.828Z,101775.00
2023-02-26T22:25:34.858Z,101771.00
2023-02-26T22:35:34.942Z,101773.00
2023-02-26T22:45:34.960Z,101773.00
2023-02-26T22:55:34.892Z,101779.00
2023-02-26T23:05:35.018Z,101779.00
2023-02-26T23:15:35.023Z,101789.00
2023-02-26T23:25:34.893Z,101791.00
2023-02-26T23:35:35.096Z,101793.00
2023-02-26T23:45:34.944Z,101797.00
2023-02-26T23:55:35.012Z,101802.00
